Main page
METAR-TAF:

METAR-TAF

Airports :

London Southend Airport

London-Southend, England

latitude: 51-34N, longitude: 000-42E, elevation: 15 m

Current weather observation

The report was made 43 minutes ago, at 08:20 UTC
Wind 15 kt from the West
Temperature 13°C
Humidity 58%
Pressure 1006 hPa
Visibility 10 km or more
Few clouds at a height of 3000 ft

METAR: EGMC 210820Z 26015KT 9999 FEW030 13/05 Q1006

Time: 10:03 (09:03 UTC)

Forecast

The report was made 1 hour and 7 minutes ago, at 07:56 UTC
Forecast valid from 21 at 09 UTC to 21 at 18 UTC
Wind 17 kt from the West
Visibility 10 km or more
Scattered clouds at a height of 3500 ft
Temporary
from 21 at 09 UTC to 21 at 18 UTC
Wind 20 kt from the West with gusts up to 35 kt

TAF: EGMC 210756Z 2109/2118 26017KT 9999 SCT035 TEMPO 2109/2118 27020G35KT

Weather observations and forecasts of more than 4000 airports (METAR and TAF reports).

The available stations are represented by yellow and red dots on the map.

Hover mouse over dot to see the name of the station.

Then click to see weather observations and forecasts.

To change the map : click on the green buttons with a black cross to zoom in, on the green button with a dash to zoom out, or on the green arrows for adjacent maps.


METAR-TAF: